Portada
METAR-TAF:

METAR-TAF

Aeropuertos :

Millington-Memphis Airport

Millington, Tennessee, Estados Unidos

latitud: 35-21-24N, longitud: 089-52-13W, altitud: 98 m

Observación

El informe se hizo hace 32 minutos, a las 08:35 UTC
Viento calma
Temperatura 19°C
Humedad 100%
Presión 1014 hPa
Visibilidad: 6.4 km
Cielo despejado
neblina

METAR: KNQA 060835Z AUTO 00000KT 4SM BR CLR 19/19 A2995 RMK A01

Hora: 04:07 (09:07 UTC)


TAF: falta

Observaciones y pronósticos meteorológicos de más de 4000 aeropuertos (mensajes METAR y TAF).

Los puntos amarillos y rojos representan las estaciones disponibles.

Ponga el ratón en el punto deseado para ver el nombre de la estación.

Haga clic para ver las observaciones y los pronósticos meteorológicos.

Para cambiar el mapa : haga clic en los botones verdes con una cruz de color negro para hacer un zoom, en el botón verde con un guión para alejar o en las flechas verdes para mapas adyacentes.


METAR-TAF: